sensor_id;sensor_type;location;lat;lon;timestamp;P1;durP1;ratioP1;P2;durP2;ratioP2
4365;SDS011;2196;47.422;9.656;2024-02-04T00:01:21;17.30;;;11.03;;
4365;SDS011;2196;47.422;9.656;2024-02-04T00:03:48;24.27;;;11.40;;
4365;SDS011;2196;47.422;9.656;2024-02-04T00:06:14;18.57;;;9.53;;
4365;SDS011;2196;47.422;9.656;2024-02-04T00:08:43;10.23;;;8.63;;
4365;SDS011;2196;47.422;9.656;2024-02-04T00:11:10;14.07;;;9.43;;
4365;SDS011;2196;47.422;9.656;2024-02-04T00:13:37;10.17;;;7.90;;
4365;SDS011;2196;47.422;9.656;2024-02-04T00:16:04;11.23;;;8.87;;
4365;SDS011;2196;47.422;9.656;2024-02-04T00:18:31;10.03;;;8.27;;
4365;SDS011;2196;47.422;9.656;2024-02-04T00:20:58;10.87;;;9.07;;
4365;SDS011;2196;47.422;9.656;2024-02-04T00:23:25;9.73;;;7.67;;
4365;SDS011;2196;47.422;9.656;2024-02-04T00:25:53;10.63;;;8.40;;
4365;SDS011;2196;47.422;9.656;2024-02-04T00:28:20;10.37;;;7.97;;
4365;SDS011;2196;47.422;9.656;2024-02-04T00:30:47;9.63;;;8.47;;
4365;SDS011;2196;47.422;9.656;2024-02-04T00:33:15;11.33;;;8.67;;
4365;SDS011;2196;47.422;9.656;2024-02-04T00:35:42;8.90;;;7.30;;
4365;SDS011;2196;47.422;9.656;2024-02-04T00:38:08;9.57;;;8.43;;
4365;SDS011;2196;47.422;9.656;2024-02-04T00:40:35;8.93;;;7.30;;
4365;SDS011;2196;47.422;9.656;2024-02-04T00:43:04;13.57;;;7.87;;
4365;SDS011;2196;47.422;9.656;2024-02-04T00:45:31;10.83;;;7.33;;
4365;SDS011;2196;47.422;9.656;2024-02-04T00:47:58;10.37;;;7.17;;
4365;SDS011;2196;47.422;9.656;2024-02-04T00:50:25;8.57;;;6.83;;
4365;SDS011;2196;47.422;9.656;2024-02-04T00:52:52;10.80;;;8.07;;
4365;SDS011;2196;47.422;9.656;2024-02-04T00:55:20;9.40;;;7.93;;
4365;SDS011;2196;47.422;9.656;2024-02-04T00:57:47;11.03;;;6.80;;
4365;SDS011;2196;47.422;9.656;2024-02-04T01:00:16;9.27;;;6.83;;
4365;SDS011;2196;47.422;9.656;2024-02-04T01:02:44;8.80;;;7.20;;
4365;SDS011;2196;47.422;9.656;2024-02-04T01:05:11;9.93;;;7.43;;
4365;SDS011;2196;47.422;9.656;2024-02-04T01:07:39;11.87;;;7.63;;
4365;SDS011;2196;47.422;9.656;2024-02-04T01:10:07;10.27;;;7.47;;
4365;SDS011;2196;47.422;9.656;2024-02-04T01:12:34;9.50;;;6.47;;
4365;SDS011;2196;47.422;9.656;2024-02-04T01:15:01;10.90;;;7.10;;
4365;SDS011;2196;47.422;9.656;2024-02-04T01:17:31;7.53;;;6.57;;
4365;SDS011;2196;47.422;9.656;2024-02-04T01:19:59;7.23;;;6.27;;
4365;SDS011;2196;47.422;9.656;2024-02-04T01:22:26;10.10;;;6.53;;
4365;SDS011;2196;47.422;9.656;2024-02-04T01:24:53;8.03;;;6.90;;
4365;SDS011;2196;47.422;9.656;2024-02-04T01:27:20;10.47;;;7.60;;
4365;SDS011;2196;47.422;9.656;2024-02-04T01:29:46;8.50;;;6.70;;
4365;SDS011;2196;47.422;9.656;2024-02-04T01:32:13;7.10;;;5.93;;
4365;SDS011;2196;47.422;9.656;2024-02-04T01:34:42;9.60;;;7.43;;
4365;SDS011;2196;47.422;9.656;2024-02-04T01:37:09;6.63;;;5.90;;
4365;SDS011;2196;47.422;9.656;2024-02-04T01:39:36;5.57;;;5.13;;
4365;SDS011;2196;47.422;9.656;2024-02-04T01:42:03;6.37;;;5.30;;
4365;SDS011;2196;47.422;9.656;2024-02-04T01:44:30;7.50;;;5.33;;
4365;SDS011;2196;47.422;9.656;2024-02-04T01:46:57;11.47;;;6.47;;
4365;SDS011;2196;47.422;9.656;2024-02-04T01:49:24;6.53;;;5.07;;
4365;SDS011;2196;47.422;9.656;2024-02-04T01:51:53;8.63;;;5.80;;
4365;SDS011;2196;47.422;9.656;2024-02-04T01:54:21;5.97;;;5.40;;
4365;SDS011;2196;47.422;9.656;2024-02-04T01:56:51;8.43;;;5.90;;
4365;SDS011;2196;47.422;9.656;2024-02-04T01:59:19;6.33;;;5.73;;
4365;SDS011;2196;47.422;9.656;2024-02-04T02:01:53;10.93;;;7.73;;
4365;SDS011;2196;47.422;9.656;2024-02-04T02:04:20;10.50;;;8.13;;
4365;SDS011;2196;47.422;9.656;2024-02-04T02:06:48;13.73;;;9.20;;
4365;SDS011;2196;47.422;9.656;2024-02-04T02:09:16;10.47;;;8.40;;
4365;SDS011;2196;47.422;9.656;2024-02-04T02:11:42;8.50;;;7.63;;
4365;SDS011;2196;47.422;9.656;2024-02-04T02:14:13;12.90;;;7.90;;
4365;SDS011;2196;47.422;9.656;2024-02-04T02:16:42;10.83;;;9.23;;
4365;SDS011;2196;47.422;9.656;2024-02-04T02:19:13;10.43;;;7.93;;
4365;SDS011;2196;47.422;9.656;2024-02-04T02:21:56;14.67;;;8.37;;
4365;SDS011;2196;47.422;9.656;2024-02-04T02:24:31;10.17;;;7.73;;
4365;SDS011;2196;47.422;9.656;2024-02-04T02:27:00;10.57;;;7.97;;
4365;SDS011;2196;47.422;9.656;2024-02-04T02:29:27;13.77;;;8.80;;
4365;SDS011;2196;47.422;9.656;2024-02-04T02:31:54;9.53;;;7.30;;
4365;SDS011;2196;47.422;9.656;2024-02-04T02:34:21;15.90;;;10.80;;
4365;SDS011;2196;47.422;9.656;2024-02-04T02:36:50;17.73;;;12.60;;
4365;SDS011;2196;47.422;9.656;2024-02-04T02:39:23;11.50;;;10.23;;
4365;SDS011;2196;47.422;9.656;2024-02-04T02:41:54;8.53;;;7.57;;
4365;SDS011;2196;47.422;9.656;2024-02-04T02:44:23;12.27;;;8.00;;
4365;SDS011;2196;47.422;9.656;2024-02-04T02:46:52;8.63;;;7.63;;
4365;SDS011;2196;47.422;9.656;2024-02-04T02:49:20;9.37;;;7.83;;
4365;SDS011;2196;47.422;9.656;2024-02-04T02:51:47;6.70;;;5.93;;
4365;SDS011;2196;47.422;9.656;2024-02-04T02:54:14;10.70;;;7.03;;
4365;SDS011;2196;47.422;9.656;2024-02-04T02:56:41;11.03;;;8.80;;
4365;SDS011;2196;47.422;9.656;2024-02-04T02:59:09;12.50;;;8.67;;
4365;SDS011;2196;47.422;9.656;2024-02-04T03:01:38;9.83;;;8.83;;
4365;SDS011;2196;47.422;9.656;2024-02-04T03:04:05;9.07;;;8.17;;
4365;SDS011;2196;47.422;9.656;2024-02-04T03:06:32;11.17;;;8.73;;
4365;SDS011;2196;47.422;9.656;2024-02-04T03:08:59;10.67;;;8.77;;
4365;SDS011;2196;47.422;9.656;2024-02-04T03:11:26;12.07;;;8.27;;
4365;SDS011;2196;47.422;9.656;2024-02-04T03:13:53;11.90;;;8.00;;
4365;SDS011;2196;47.422;9.656;2024-02-04T03:16:22;13.80;;;8.57;;
4365;SDS011;2196;47.422;9.656;2024-02-04T03:18:49;10.73;;;7.80;;
4365;SDS011;2196;47.422;9.656;2024-02-04T03:21:18;11.67;;;8.23;;
4365;SDS011;2196;47.422;9.656;2024-02-04T03:23:45;10.80;;;7.80;;
4365;SDS011;2196;47.422;9.656;2024-02-04T03:26:16;9.33;;;8.33;;
4365;SDS011;2196;47.422;9.656;2024-02-04T03:28:44;10.33;;;8.37;;
4365;SDS011;2196;47.422;9.656;2024-02-04T03:31:11;10.17;;;8.53;;
4365;SDS011;2196;47.422;9.656;2024-02-04T03:33:39;11.33;;;8.73;;
4365;SDS011;2196;47.422;9.656;2024-02-04T03:36:06;12.87;;;7.57;;
4365;SDS011;2196;47.422;9.656;2024-02-04T03:38:34;10.50;;;9.07;;
4365;SDS011;2196;47.422;9.656;2024-02-04T03:41:01;12.63;;;8.97;;
4365;SDS011;2196;47.422;9.656;2024-02-04T03:43:28;9.53;;;8.03;;
4365;SDS011;2196;47.422;9.656;2024-02-04T03:45:55;9.13;;;8.17;;
4365;SDS011;2196;47.422;9.656;2024-02-04T03:48:22;9.07;;;7.97;;
4365;SDS011;2196;47.422;9.656;2024-02-04T03:50:50;11.90;;;8.93;;
4365;SDS011;2196;47.422;9.656;2024-02-04T03:53:17;10.93;;;7.90;;
4365;SDS011;2196;47.422;9.656;2024-02-04T03:55:46;12.47;;;8.17;;
4365;SDS011;2196;47.422;9.656;2024-02-04T03:58:13;12.80;;;8.57;;
4365;SDS011;2196;47.422;9.656;2024-02-04T04:00:40;9.60;;;7.80;;
4365;SDS011;2196;47.422;9.656;2024-02-04T04:03:07;11.83;;;7.07;;
4365;SDS011;2196;47.422;9.656;2024-02-04T04:05:33;10.13;;;7.57;;
4365;SDS011;2196;47.422;9.656;2024-02-04T04:08:02;12.33;;;7.57;;
4365;SDS011;2196;47.422;9.656;2024-02-04T04:10:30;10.77;;;8.00;;
4365;SDS011;2196;47.422;9.656;2024-02-04T04:12:56;8.33;;;7.37;;
4365;SDS011;2196;47.422;9.656;2024-02-04T04:15:23;8.67;;;6.90;;
4365;SDS011;2196;47.422;9.656;2024-02-04T04:17:51;7.77;;;6.97;;
4365;SDS011;2196;47.422;9.656;2024-02-04T04:20:18;12.03;;;7.57;;
4365;SDS011;2196;47.422;9.656;2024-02-04T04:22:45;12.73;;;8.03;;
4365;SDS011;2196;47.422;9.656;2024-02-04T04:25:13;7.57;;;6.93;;
4365;SDS011;2196;47.422;9.656;2024-02-04T04:27:42;11.37;;;6.80;;
4365;SDS011;2196;47.422;9.656;2024-02-04T04:30:09;7.77;;;6.47;;
4365;SDS011;2196;47.422;9.656;2024-02-04T04:32:36;10.20;;;8.17;;
4365;SDS011;2196;47.422;9.656;2024-02-04T04:35:03;11.70;;;7.93;;
4365;SDS011;2196;47.422;9.656;2024-02-04T04:37:31;12.63;;;8.30;;
4365;SDS011;2196;47.422;9.656;2024-02-04T04:39:57;9.87;;;7.97;;
4365;SDS011;2196;47.422;9.656;2024-02-04T04:42:26;8.87;;;7.27;;
4365;SDS011;2196;47.422;9.656;2024-02-04T04:44:53;11.67;;;8.90;;
4365;SDS011;2196;47.422;9.656;2024-02-04T04:47:20;12.73;;;7.87;;
4365;SDS011;2196;47.422;9.656;2024-02-04T04:49:46;8.70;;;7.83;;
4365;SDS011;2196;47.422;9.656;2024-02-04T04:52:14;10.77;;;8.63;;
4365;SDS011;2196;47.422;9.656;2024-02-04T04:54:41;8.93;;;7.43;;
4365;SDS011;2196;47.422;9.656;2024-02-04T04:57:08;8.07;;;6.80;;
4365;SDS011;2196;47.422;9.656;2024-02-04T04:59:36;10.87;;;8.03;;
4365;SDS011;2196;47.422;9.656;2024-02-04T05:02:04;10.33;;;7.43;;
4365;SDS011;2196;47.422;9.656;2024-02-04T05:04:30;11.67;;;8.00;;
4365;SDS011;2196;47.422;9.656;2024-02-04T05:06:57;10.13;;;7.30;;
4365;SDS011;2196;47.422;9.656;2024-02-04T05:09:24;9.33;;;7.23;;
4365;SDS011;2196;47.422;9.656;2024-02-04T05:11:51;12.80;;;8.33;;
4365;SDS011;2196;47.422;9.656;2024-02-04T05:14:18;11.00;;;7.60;;
4365;SDS011;2196;47.422;9.656;2024-02-04T05:16:48;8.47;;;7.50;;
4365;SDS011;2196;47.422;9.656;2024-02-04T05:19:15;10.03;;;8.30;;
4365;SDS011;2196;47.422;9.656;2024-02-04T05:21:42;9.07;;;8.17;;
4365;SDS011;2196;47.422;9.656;2024-02-04T05:24:09;11.93;;;8.30;;
4365;SDS011;2196;47.422;9.656;2024-02-04T05:26:37;9.43;;;7.63;;
4365;SDS011;2196;47.422;9.656;2024-02-04T05:29:03;7.50;;;6.80;;
4365;SDS011;2196;47.422;9.656;2024-02-04T05:31:30;10.37;;;7.57;;
4365;SDS011;2196;47.422;9.656;2024-02-04T05:33:59;11.27;;;8.50;;
4365;SDS011;2196;47.422;9.656;2024-02-04T05:36:31;11.67;;;7.63;;
4365;SDS011;2196;47.422;9.656;2024-02-04T05:39:08;9.93;;;7.73;;
4365;SDS011;2196;47.422;9.656;2024-02-04T05:41:35;10.13;;;8.60;;
4365;SDS011;2196;47.422;9.656;2024-02-04T05:44:02;13.13;;;8.83;;
4365;SDS011;2196;47.422;9.656;2024-02-04T05:46:30;14.87;;;9.40;;
4365;SDS011;2196;47.422;9.656;2024-02-04T05:48:58;10.07;;;7.87;;
4365;SDS011;2196;47.422;9.656;2024-02-04T05:51:25;14.03;;;9.90;;
4365;SDS011;2196;47.422;9.656;2024-02-04T05:53:53;18.47;;;12.47;;
4365;SDS011;2196;47.422;9.656;2024-02-04T05:56:20;17.10;;;12.90;;
4365;SDS011;2196;47.422;9.656;2024-02-04T05:58:47;14.93;;;11.37;;
4365;SDS011;2196;47.422;9.656;2024-02-04T06:01:15;20.00;;;13.17;;
4365;SDS011;2196;47.422;9.656;2024-02-04T06:03:42;19.30;;;12.13;;
4365;SDS011;2196;47.422;9.656;2024-02-04T06:06:14;16.37;;;11.73;;
4365;SDS011;2196;47.422;9.656;2024-02-04T06:08:42;16.17;;;11.40;;
4365;SDS011;2196;47.422;9.656;2024-02-04T06:11:10;18.90;;;12.37;;
4365;SDS011;2196;47.422;9.656;2024-02-04T06:13:39;12.37;;;11.07;;
4365;SDS011;2196;47.422;9.656;2024-02-04T06:16:07;16.83;;;11.73;;
4365;SDS011;2196;47.422;9.656;2024-02-04T06:18:35;12.77;;;9.27;;
4365;SDS011;2196;47.422;9.656;2024-02-04T06:21:03;11.30;;;8.73;;
4365;SDS011;2196;47.422;9.656;2024-02-04T06:23:31;10.03;;;8.10;;
4365;SDS011;2196;47.422;9.656;2024-02-04T06:25:59;9.67;;;8.07;;
4365;SDS011;2196;47.422;9.656;2024-02-04T06:28:27;9.43;;;6.93;;
4365;SDS011;2196;47.422;9.656;2024-02-04T06:30:54;9.03;;;7.93;;
4365;SDS011;2196;47.422;9.656;2024-02-04T06:33:20;15.60;;;9.07;;
4365;SDS011;2196;47.422;9.656;2024-02-04T06:35:49;14.50;;;10.20;;
4365;SDS011;2196;47.422;9.656;2024-02-04T06:38:16;12.43;;;8.93;;
4365;SDS011;2196;47.422;9.656;2024-02-04T06:40:45;10.10;;;8.93;;
4365;SDS011;2196;47.422;9.656;2024-02-04T06:43:12;10.00;;;8.30;;
4365;SDS011;2196;47.422;9.656;2024-02-04T06:45:39;11.73;;;8.53;;
4365;SDS011;2196;47.422;9.656;2024-02-04T06:48:06;11.97;;;8.37;;
4365;SDS011;2196;47.422;9.656;2024-02-04T06:50:34;11.23;;;9.73;;
4365;SDS011;2196;47.422;9.656;2024-02-04T06:53:02;10.27;;;9.27;;
4365;SDS011;2196;47.422;9.656;2024-02-04T06:55:29;8.33;;;7.53;;
4365;SDS011;2196;47.422;9.656;2024-02-04T06:57:57;9.20;;;7.53;;
4365;SDS011;2196;47.422;9.656;2024-02-04T07:00:24;10.27;;;8.23;;
4365;SDS011;2196;47.422;9.656;2024-02-04T07:02:51;11.67;;;8.67;;
4365;SDS011;2196;47.422;9.656;2024-02-04T07:05:18;9.83;;;8.90;;
4365;SDS011;2196;47.422;9.656;2024-02-04T07:07:47;15.10;;;8.67;;
4365;SDS011;2196;47.422;9.656;2024-02-04T07:10:14;13.50;;;9.40;;
4365;SDS011;2196;47.422;9.656;2024-02-04T07:12:41;11.90;;;10.67;;
4365;SDS011;2196;47.422;9.656;2024-02-04T07:15:10;14.47;;;9.87;;
4365;SDS011;2196;47.422;9.656;2024-02-04T07:17:37;16.37;;;11.90;;
4365;SDS011;2196;47.422;9.656;2024-02-04T07:20:04;13.77;;;12.07;;
4365;SDS011;2196;47.422;9.656;2024-02-04T07:22:32;15.63;;;11.93;;
4365;SDS011;2196;47.422;9.656;2024-02-04T07:25:00;13.37;;;10.27;;
4365;SDS011;2196;47.422;9.656;2024-02-04T07:27:28;10.57;;;9.50;;
4365;SDS011;2196;47.422;9.656;2024-02-04T07:29:56;12.27;;;10.83;;
4365;SDS011;2196;47.422;9.656;2024-02-04T07:32:24;13.23;;;11.00;;
4365;SDS011;2196;47.422;9.656;2024-02-04T07:34:51;12.90;;;10.13;;
4365;SDS011;2196;47.422;9.656;2024-02-04T07:37:18;12.33;;;9.87;;
4365;SDS011;2196;47.422;9.656;2024-02-04T07:39:45;12.13;;;10.63;;
4365;SDS011;2196;47.422;9.656;2024-02-04T07:42:12;16.77;;;12.37;;
4365;SDS011;2196;47.422;9.656;2024-02-04T07:44:39;17.00;;;12.40;;
4365;SDS011;2196;47.422;9.656;2024-02-04T07:47:06;19.17;;;15.07;;
4365;SDS011;2196;47.422;9.656;2024-02-04T07:49:34;18.97;;;14.53;;
4365;SDS011;2196;47.422;9.656;2024-02-04T07:52:01;19.20;;;15.20;;
4365;SDS011;2196;47.422;9.656;2024-02-04T07:54:28;19.77;;;14.63;;
4365;SDS011;2196;47.422;9.656;2024-02-04T07:56:55;15.70;;;14.03;;
4365;SDS011;2196;47.422;9.656;2024-02-04T07:59:22;19.90;;;14.63;;
4365;SDS011;2196;47.422;9.656;2024-02-04T08:01:49;19.27;;;15.23;;
4365;SDS011;2196;47.422;9.656;2024-02-04T08:04:16;19.10;;;14.63;;
4365;SDS011;2196;47.422;9.656;2024-02-04T08:06:45;16.93;;;13.07;;
4365;SDS011;2196;47.422;9.656;2024-02-04T08:09:12;16.37;;;12.63;;
4365;SDS011;2196;47.422;9.656;2024-02-04T08:11:39;15.60;;;11.50;;
4365;SDS011;2196;47.422;9.656;2024-02-04T08:14:06;12.73;;;11.23;;
4365;SDS011;2196;47.422;9.656;2024-02-04T08:16:33;12.43;;;10.13;;
4365;SDS011;2196;47.422;9.656;2024-02-04T08:19:00;12.20;;;10.17;;
4365;SDS011;2196;47.422;9.656;2024-02-04T08:21:27;12.50;;;11.23;;
4365;SDS011;2196;47.422;9.656;2024-02-04T08:23:57;11.60;;;10.40;;
4365;SDS011;2196;47.422;9.656;2024-02-04T08:26:24;11.87;;;9.57;;
4365;SDS011;2196;47.422;9.656;2024-02-04T08:28:51;12.30;;;11.00;;
4365;SDS011;2196;47.422;9.656;2024-02-04T08:31:18;14.53;;;10.37;;
4365;SDS011;2196;47.422;9.656;2024-02-04T08:33:46;12.37;;;11.13;;
4365;SDS011;2196;47.422;9.656;2024-02-04T08:36:13;13.33;;;10.70;;
4365;SDS011;2196;47.422;9.656;2024-02-04T08:38:40;16.10;;;11.53;;
4365;SDS011;2196;47.422;9.656;2024-02-04T08:41:09;16.13;;;12.47;;
4365;SDS011;2196;47.422;9.656;2024-02-04T08:43:35;12.07;;;10.83;;
4365;SDS011;2196;47.422;9.656;2024-02-04T08:46:03;15.57;;;12.77;;
4365;SDS011;2196;47.422;9.656;2024-02-04T08:48:31;21.07;;;11.57;;
4365;SDS011;2196;47.422;9.656;2024-02-04T08:50:58;20.27;;;15.17;;
4365;SDS011;2196;47.422;9.656;2024-02-04T08:53:25;14.47;;;12.63;;
4365;SDS011;2196;47.422;9.656;2024-02-04T08:55:52;18.47;;;13.30;;
4365;SDS011;2196;47.422;9.656;2024-02-04T08:58:20;16.37;;;12.93;;
4365;SDS011;2196;47.422;9.656;2024-02-04T09:00:48;17.30;;;13.30;;
4365;SDS011;2196;47.422;9.656;2024-02-04T09:03:15;17.40;;;14.00;;
4365;SDS011;2196;47.422;9.656;2024-02-04T09:05:42;17.07;;;13.53;;
4365;SDS011;2196;47.422;9.656;2024-02-04T09:08:09;19.23;;;14.53;;
4365;SDS011;2196;47.422;9.656;2024-02-04T09:10:36;19.97;;;15.73;;
4365;SDS011;2196;47.422;9.656;2024-02-04T09:13:03;19.80;;;13.17;;
4365;SDS011;2196;47.422;9.656;2024-02-04T09:15:32;22.27;;;14.87;;
4365;SDS011;2196;47.422;9.656;2024-02-04T09:17:59;17.80;;;13.27;;
4365;SDS011;2196;47.422;9.656;2024-02-04T09:20:25;19.60;;;14.27;;
4365;SDS011;2196;47.422;9.656;2024-02-04T09:22:52;15.17;;;12.93;;
4365;SDS011;2196;47.422;9.656;2024-02-04T09:25:19;18.27;;;13.63;;
4365;SDS011;2196;47.422;9.656;2024-02-04T09:27:46;17.70;;;13.10;;
4365;SDS011;2196;47.422;9.656;2024-02-04T09:30:13;14.97;;;12.73;;
4365;SDS011;2196;47.422;9.656;2024-02-04T09:32:42;15.30;;;13.70;;
4365;SDS011;2196;47.422;9.656;2024-02-04T09:35:09;19.90;;;13.73;;
4365;SDS011;2196;47.422;9.656;2024-02-04T09:37:36;16.13;;;13.67;;
4365;SDS011;2196;47.422;9.656;2024-02-04T09:40:03;17.93;;;13.53;;
4365;SDS011;2196;47.422;9.656;2024-02-04T09:42:30;15.03;;;13.37;;
4365;SDS011;2196;47.422;9.656;2024-02-04T09:44:57;13.37;;;11.97;;
4365;SDS011;2196;47.422;9.656;2024-02-04T09:47:25;12.43;;;10.73;;
4365;SDS011;2196;47.422;9.656;2024-02-04T09:49:53;12.97;;;10.77;;
4365;SDS011;2196;47.422;9.656;2024-02-04T09:52:27;14.70;;;11.40;;
4365;SDS011;2196;47.422;9.656;2024-02-04T09:54:57;15.27;;;12.17;;
4365;SDS011;2196;47.422;9.656;2024-02-04T09:57:25;12.10;;;10.10;;
4365;SDS011;2196;47.422;9.656;2024-02-04T09:59:53;12.50;;;10.10;;
4365;SDS011;2196;47.422;9.656;2024-02-04T10:02:21;12.67;;;10.40;;
4365;SDS011;2196;47.422;9.656;2024-02-04T10:04:49;11.60;;;9.47;;
4365;SDS011;2196;47.422;9.656;2024-02-04T10:07:19;10.77;;;9.37;;
4365;SDS011;2196;47.422;9.656;2024-02-04T10:09:46;11.70;;;10.50;;
4365;SDS011;2196;47.422;9.656;2024-02-04T10:12:14;10.90;;;9.80;;
4365;SDS011;2196;47.422;9.656;2024-02-04T10:14:41;9.73;;;8.73;;
4365;SDS011;2196;47.422;9.656;2024-02-04T10:17:08;9.60;;;8.63;;
4365;SDS011;2196;47.422;9.656;2024-02-04T10:19:36;10.17;;;8.80;;
4365;SDS011;2196;47.422;9.656;2024-02-04T10:22:03;10.17;;;9.27;;
4365;SDS011;2196;47.422;9.656;2024-02-04T10:24:32;13.17;;;10.10;;
4365;SDS011;2196;47.422;9.656;2024-02-04T10:26:59;9.73;;;8.87;;
4365;SDS011;2196;47.422;9.656;2024-02-04T10:29:26;12.43;;;10.43;;
4365;SDS011;2196;47.422;9.656;2024-02-04T10:31:53;10.03;;;8.97;;
4365;SDS011;2196;47.422;9.656;2024-02-04T10:34:21;9.93;;;8.93;;
4365;SDS011;2196;47.422;9.656;2024-02-04T10:36:48;9.63;;;8.63;;
4365;SDS011;2196;47.422;9.656;2024-02-04T10:39:16;12.03;;;9.77;;
4365;SDS011;2196;47.422;9.656;2024-02-04T10:41:47;10.13;;;9.10;;
4365;SDS011;2196;47.422;9.656;2024-02-04T10:44:16;10.70;;;9.50;;
4365;SDS011;2196;47.422;9.656;2024-02-04T10:46:45;12.23;;;9.70;;
4365;SDS011;2196;47.422;9.656;2024-02-04T10:49:13;11.97;;;10.63;;
4365;SDS011;2196;47.422;9.656;2024-02-04T10:51:41;11.97;;;10.50;;
4365;SDS011;2196;47.422;9.656;2024-02-04T10:54:08;13.10;;;9.27;;
4365;SDS011;2196;47.422;9.656;2024-02-04T10:56:36;10.93;;;9.60;;
4365;SDS011;2196;47.422;9.656;2024-02-04T10:59:05;12.37;;;10.57;;
4365;SDS011;2196;47.422;9.656;2024-02-04T11:01:33;11.80;;;10.20;;
4365;SDS011;2196;47.422;9.656;2024-02-04T11:04:00;12.17;;;11.00;;
4365;SDS011;2196;47.422;9.656;2024-02-04T11:06:27;11.37;;;10.17;;
4365;SDS011;2196;47.422;9.656;2024-02-04T11:08:56;11.53;;;9.47;;
4365;SDS011;2196;47.422;9.656;2024-02-04T11:11:25;9.57;;;8.57;;
4365;SDS011;2196;47.422;9.656;2024-02-04T11:13:53;12.17;;;10.23;;
4365;SDS011;2196;47.422;9.656;2024-02-04T11:16:27;10.63;;;9.53;;
4365;SDS011;2196;47.422;9.656;2024-02-04T11:19:11;11.50;;;10.37;;
4365;SDS011;2196;47.422;9.656;2024-02-04T11:21:58;9.97;;;8.97;;
4365;SDS011;2196;47.422;9.656;2024-02-04T11:24:36;10.27;;;9.13;;
4365;SDS011;2196;47.422;9.656;2024-02-04T11:27:08;11.70;;;9.47;;
4365;SDS011;2196;47.422;9.656;2024-02-04T11:29:35;8.93;;;7.93;;
4365;SDS011;2196;47.422;9.656;2024-02-04T11:32:04;9.27;;;8.27;;
4365;SDS011;2196;47.422;9.656;2024-02-04T11:34:32;9.43;;;8.17;;
4365;SDS011;2196;47.422;9.656;2024-02-04T11:37:00;7.90;;;7.10;;
4365;SDS011;2196;47.422;9.656;2024-02-04T11:39:27;8.23;;;7.30;;
4365;SDS011;2196;47.422;9.656;2024-02-04T11:41:54;9.80;;;8.77;;
4365;SDS011;2196;47.422;9.656;2024-02-04T11:44:21;8.67;;;7.87;;
4365;SDS011;2196;47.422;9.656;2024-02-04T11:46:49;8.90;;;8.10;;
4365;SDS011;2196;47.422;9.656;2024-02-04T11:49:18;9.97;;;8.27;;
4365;SDS011;2196;47.422;9.656;2024-02-04T11:51:47;10.00;;;9.07;;
4365;SDS011;2196;47.422;9.656;2024-02-04T11:54:15;11.23;;;9.17;;
4365;SDS011;2196;47.422;9.656;2024-02-04T11:56:44;9.03;;;8.00;;
4365;SDS011;2196;47.422;9.656;2024-02-04T11:59:17;11.60;;;8.57;;
4365;SDS011;2196;47.422;9.656;2024-02-04T12:01:45;8.47;;;7.67;;
4365;SDS011;2196;47.422;9.656;2024-02-04T12:04:13;8.73;;;7.50;;
4365;SDS011;2196;47.422;9.656;2024-02-04T12:06:42;9.63;;;8.00;;
4365;SDS011;2196;47.422;9.656;2024-02-04T12:09:09;8.47;;;7.57;;
4365;SDS011;2196;47.422;9.656;2024-02-04T12:11:37;8.40;;;6.97;;
4365;SDS011;2196;47.422;9.656;2024-02-04T12:14:05;8.30;;;7.43;;
4365;SDS011;2196;47.422;9.656;2024-02-04T12:16:33;9.67;;;8.57;;
4365;SDS011;2196;47.422;9.656;2024-02-04T12:19:01;8.20;;;7.40;;
4365;SDS011;2196;47.422;9.656;2024-02-04T12:21:29;9.10;;;7.80;;
4365;SDS011;2196;47.422;9.656;2024-02-04T12:23:58;8.83;;;7.87;;
4365;SDS011;2196;47.422;9.656;2024-02-04T12:26:26;9.90;;;8.90;;
4365;SDS011;2196;47.422;9.656;2024-02-04T12:28:53;9.80;;;8.80;;
4365;SDS011;2196;47.422;9.656;2024-02-04T12:31:21;9.23;;;8.33;;
4365;SDS011;2196;47.422;9.656;2024-02-04T12:33:54;7.93;;;7.13;;
4365;SDS011;2196;47.422;9.656;2024-02-04T12:36:23;9.10;;;8.17;;
4365;SDS011;2196;47.422;9.656;2024-02-04T12:38:54;9.30;;;8.27;;
4365;SDS011;2196;47.422;9.656;2024-02-04T12:41:23;8.50;;;7.27;;
4365;SDS011;2196;47.422;9.656;2024-02-04T12:43:50;8.73;;;7.90;;
4365;SDS011;2196;47.422;9.656;2024-02-04T12:46:18;8.83;;;7.40;;
4365;SDS011;2196;47.422;9.656;2024-02-04T12:48:50;7.87;;;6.97;;
4365;SDS011;2196;47.422;9.656;2024-02-04T12:51:23;8.53;;;7.73;;
4365;SDS011;2196;47.422;9.656;2024-02-04T12:53:50;9.17;;;8.07;;
4365;SDS011;2196;47.422;9.656;2024-02-04T12:56:17;8.13;;;7.40;;
4365;SDS011;2196;47.422;9.656;2024-02-04T12:58:46;10.13;;;8.00;;
4365;SDS011;2196;47.422;9.656;2024-02-04T13:01:13;9.80;;;7.77;;
4365;SDS011;2196;47.422;9.656;2024-02-04T13:03:41;8.23;;;6.93;;
4365;SDS011;2196;47.422;9.656;2024-02-04T13:06:08;8.93;;;7.17;;
4365;SDS011;2196;47.422;9.656;2024-02-04T13:08:35;9.43;;;8.00;;
4365;SDS011;2196;47.422;9.656;2024-02-04T13:11:02;8.00;;;7.17;;
4365;SDS011;2196;47.422;9.656;2024-02-04T13:13:29;8.67;;;7.77;;
4365;SDS011;2196;47.422;9.656;2024-02-04T13:15:57;7.93;;;7.13;;
4365;SDS011;2196;47.422;9.656;2024-02-04T13:18:25;6.33;;;5.83;;
4365;SDS011;2196;47.422;9.656;2024-02-04T13:20:52;8.00;;;6.87;;
4365;SDS011;2196;47.422;9.656;2024-02-04T13:23:19;8.70;;;7.47;;
4365;SDS011;2196;47.422;9.656;2024-02-04T13:25:46;7.67;;;6.97;;
4365;SDS011;2196;47.422;9.656;2024-02-04T13:28:13;7.47;;;6.83;;
4365;SDS011;2196;47.422;9.656;2024-02-04T13:30:41;8.17;;;6.87;;
4365;SDS011;2196;47.422;9.656;2024-02-04T13:33:09;7.97;;;7.27;;
4365;SDS011;2196;47.422;9.656;2024-02-04T13:35:36;7.90;;;6.73;;
4365;SDS011;2196;47.422;9.656;2024-02-04T13:38:04;8.43;;;6.63;;
4365;SDS011;2196;47.422;9.656;2024-02-04T13:40:33;7.30;;;6.60;;
4365;SDS011;2196;47.422;9.656;2024-02-04T13:43:00;8.80;;;7.60;;
4365;SDS011;2196;47.422;9.656;2024-02-04T13:45:28;7.73;;;6.83;;
4365;SDS011;2196;47.422;9.656;2024-02-04T13:47:55;8.00;;;7.20;;
4365;SDS011;2196;47.422;9.656;2024-02-04T13:50:23;7.20;;;6.57;;
4365;SDS011;2196;47.422;9.656;2024-02-04T13:52:51;7.57;;;5.90;;
4365;SDS011;2196;47.422;9.656;2024-02-04T13:55:18;7.53;;;6.70;;
4365;SDS011;2196;47.422;9.656;2024-02-04T13:57:45;9.30;;;7.20;;
4365;SDS011;2196;47.422;9.656;2024-02-04T14:00:12;7.03;;;6.33;;
4365;SDS011;2196;47.422;9.656;2024-02-04T14:02:40;9.77;;;7.60;;
4365;SDS011;2196;47.422;9.656;2024-02-04T14:05:07;8.77;;;7.83;;
4365;SDS011;2196;47.422;9.656;2024-02-04T14:07:36;8.63;;;7.87;;
4365;SDS011;2196;47.422;9.656;2024-02-04T14:10:03;7.33;;;6.80;;
4365;SDS011;2196;47.422;9.656;2024-02-04T14:12:31;8.67;;;7.27;;
4365;SDS011;2196;47.422;9.656;2024-02-04T14:14:58;7.50;;;6.80;;
4365;SDS011;2196;47.422;9.656;2024-02-04T14:17:25;7.63;;;6.93;;
4365;SDS011;2196;47.422;9.656;2024-02-04T14:19:52;9.17;;;6.73;;
4365;SDS011;2196;47.422;9.656;2024-02-04T14:22:19;7.70;;;6.90;;
4365;SDS011;2196;47.422;9.656;2024-02-04T14:24:51;6.93;;;6.23;;
4365;SDS011;2196;47.422;9.656;2024-02-04T14:27:19;9.13;;;6.23;;
4365;SDS011;2196;47.422;9.656;2024-02-04T14:29:46;7.50;;;6.70;;
4365;SDS011;2196;47.422;9.656;2024-02-04T14:32:13;7.47;;;6.57;;
4365;SDS011;2196;47.422;9.656;2024-02-04T14:34:40;8.50;;;7.40;;
4365;SDS011;2196;47.422;9.656;2024-02-04T14:37:08;8.27;;;6.97;;
4365;SDS011;2196;47.422;9.656;2024-02-04T14:39:35;8.57;;;7.23;;
4365;SDS011;2196;47.422;9.656;2024-02-04T14:42:04;9.10;;;6.90;;
4365;SDS011;2196;47.422;9.656;2024-02-04T14:44:32;8.70;;;7.97;;
4365;SDS011;2196;47.422;9.656;2024-02-04T14:46:59;7.63;;;6.93;;
4365;SDS011;2196;47.422;9.656;2024-02-04T14:49:26;7.80;;;7.07;;
4365;SDS011;2196;47.422;9.656;2024-02-04T14:51:53;7.33;;;6.60;;
4365;SDS011;2196;47.422;9.656;2024-02-04T14:54:21;8.47;;;7.63;;
4365;SDS011;2196;47.422;9.656;2024-02-04T14:56:48;9.10;;;7.03;;
4365;SDS011;2196;47.422;9.656;2024-02-04T14:59:17;6.90;;;6.20;;
4365;SDS011;2196;47.422;9.656;2024-02-04T15:01:45;8.70;;;7.80;;
4365;SDS011;2196;47.422;9.656;2024-02-04T15:04:12;10.47;;;8.60;;
4365;SDS011;2196;47.422;9.656;2024-02-04T15:06:39;9.67;;;6.93;;